createdAt,value
2018-12-27T00:00:33.788Z,102188.17
2018-12-27T00:03:02.825Z,102187.45
2018-12-27T00:05:31.985Z,102193.94
2018-12-27T00:08:01.205Z,102190.81
2018-12-27T00:10:30.335Z,102191.90
2018-12-27T00:12:59.341Z,102184.91
2018-12-27T00:15:28.360Z,102189.25
2018-12-27T00:17:57.521Z,102183.96
2018-12-27T00:20:26.525Z,102184.81
2018-12-27T00:22:55.562Z,102187.45
2018-12-27T00:25:24.661Z,102184.09
2018-12-27T00:27:53.589Z,102179.39
2018-12-27T00:30:22.601Z,102175.92
2018-12-27T00:32:51.700Z,102179.89
2018-12-27T00:35:20.792Z,102181.08
2018-12-27T00:37:49.809Z,102169.79
2018-12-27T00:40:18.752Z,102171.72
2018-12-27T00:42:48.070Z,102173.66
2018-12-27T00:45:17.070Z,102165.34
2018-12-27T00:47:46.136Z,102168.95
2018-12-27T00:50:15.073Z,102164.27
2018-12-27T00:52:44.169Z,102165.72
2018-12-27T00:55:13.169Z,102161.38
2018-12-27T00:57:42.090Z,102164.73
2018-12-27T01:00:11.058Z,102162.23
2018-12-27T01:02:40.176Z,102153.45
2018-12-27T01:05:09.235Z,102148.30
2018-12-27T01:07:38.342Z,102158.03
2018-12-27T01:10:07.607Z,102155.02
2018-12-27T01:12:36.705Z,102153.22
2018-12-27T01:15:05.865Z,102151.41
2018-12-27T01:17:34.896Z,102149.14
2018-12-27T01:20:03.880Z,102147.92
2018-12-27T01:22:32.850Z,102143.34
2018-12-27T01:25:01.847Z,102143.11
2018-12-27T01:27:30.899Z,102146.73
2018-12-27T01:30:00.427Z,102151.79
2018-12-27T01:32:29.439Z,102151.17
2018-12-27T01:35:02.501Z,102148.06
2018-12-27T01:37:31.567Z,102140.12
2018-12-27T01:40:00.529Z,102146.97
2018-12-27T01:42:29.550Z,102142.30
2018-12-27T01:44:58.917Z,102136.30
2018-12-27T01:47:28.098Z,102134.97
2018-12-27T01:49:56.958Z,102130.63
2018-12-27T01:52:26.077Z,102130.77
2018-12-27T01:54:55.124Z,102124.02
2018-12-27T01:57:24.275Z,102118.40
2018-12-27T01:59:53.286Z,102115.48
2018-12-27T02:02:25.484Z,102116.94
2018-12-27T02:04:54.772Z,102117.04
2018-12-27T02:07:23.877Z,102122.56
2018-12-27T02:09:52.874Z,102117.78
2018-12-27T02:12:21.928Z,102118.50
2018-12-27T02:14:50.962Z,102113.11
2018-12-27T02:17:19.857Z,102115.99
2018-12-27T02:19:48.821Z,102114.91
2018-12-27T02:22:17.790Z,102115.04
2018-12-27T02:24:46.688Z,102109.14
2018-12-27T02:27:15.580Z,102103.75
2018-12-27T02:29:44.621Z,102104.97
2018-12-27T02:32:13.641Z,102100.50
2018-12-27T02:34:42.553Z,102094.73
2018-12-27T02:37:11.656Z,102098.45
2018-12-27T02:39:40.641Z,102098.72
2018-12-27T02:42:09.580Z,102103.39
2018-12-27T02:44:38.574Z,102103.38
2018-12-27T02:47:07.477Z,102103.50
2018-12-27T02:49:36.525Z,102109.27
2018-12-27T02:52:05.458Z,102100.48
2018-12-27T02:54:34.476Z,102098.95
2018-12-27T02:57:03.469Z,102097.84
2018-12-27T02:59:32.635Z,102097.72
2018-12-27T03:02:01.659Z,102090.25
2018-12-27T03:04:30.756Z,102089.05
2018-12-27T03:06:59.767Z,102088.30
2018-12-27T03:09:28.736Z,102080.37
2018-12-27T03:11:57.730Z,102080.50
2018-12-27T03:14:26.729Z,102073.17
2018-12-27T03:16:55.897Z,102063.93
2018-12-27T03:19:25.091Z,102060.69
2018-12-27T03:21:54.035Z,102056.16
2018-12-27T03:24:23.266Z,102052.55
2018-12-27T03:26:52.093Z,102048.23
2018-12-27T03:29:21.185Z,102047.15
2018-12-27T03:31:50.081Z,102039.60
2018-12-27T03:34:19.055Z,102035.04
2018-12-27T03:36:48.116Z,102034.81
2018-12-27T03:39:16.944Z,102039.14
2018-12-27T03:41:45.885Z,102029.78
2018-12-27T03:44:14.864Z,102038.19
2018-12-27T03:46:43.682Z,102035.78
2018-12-27T03:49:13.266Z,102030.62
2018-12-27T03:51:42.100Z,102027.61
2018-12-27T03:54:11.028Z,102024.36
2018-12-27T03:56:40.034Z,102024.13
2018-12-27T03:59:08.882Z,102022.70
2018-12-27T04:01:37.947Z,102020.16
2018-12-27T04:04:06.763Z,102018.25
2018-12-27T04:06:35.778Z,102015.23
2018-12-27T04:09:05.334Z,102008.50
2018-12-27T04:11:34.163Z,102012.20
2018-12-27T04:14:03.184Z,102012.20
2018-12-27T04:16:32.162Z,102011.88
2018-12-27T04:19:01.143Z,102013.78
2018-12-27T04:21:30.113Z,102012.95
2018-12-27T04:23:59.165Z,102005.02
2018-12-27T04:26:30.206Z,102005.46
2018-12-27T04:28:59.111Z,102003.67
2018-12-27T04:31:28.388Z,102002.37
2018-12-27T04:33:57.750Z,102003.69
2018-12-27T04:36:26.907Z,101996.00
2018-12-27T04:38:55.853Z,101997.05
2018-12-27T04:41:24.749Z,101993.70
2018-12-27T04:43:53.792Z,101986.39
2018-12-27T04:46:22.763Z,101991.78
2018-12-27T04:48:51.676Z,101998.30
2018-12-27T04:51:20.952Z,101989.63
2018-12-27T04:53:49.881Z,101996.48
2018-12-27T04:56:18.826Z,102001.16
2018-12-27T04:58:48.561Z,102005.95
2018-12-27T05:01:17.534Z,102000.03
2018-12-27T05:03:46.534Z,102001.33
2018-12-27T05:06:15.448Z,102001.06
2018-12-27T05:08:44.485Z,101998.30
2018-12-27T05:11:13.314Z,102005.12
2018-12-27T05:13:42.211Z,102008.44
2018-12-27T05:16:11.092Z,102006.63
2018-12-27T05:18:40.038Z,102007.91
2018-12-27T05:21:09.035Z,102007.66
2018-12-27T05:23:38.127Z,102007.00
2018-12-27T05:26:07.055Z,102010.66
2018-12-27T05:28:35.974Z,102006.80
2018-12-27T05:31:05.015Z,102015.04
2018-12-27T05:33:33.887Z,102015.00
2018-12-27T05:36:02.879Z,102021.75
2018-12-27T05:38:31.843Z,102026.03
2018-12-27T05:41:00.860Z,102027.01
2018-12-27T05:43:29.922Z,102024.72
2018-12-27T05:45:58.934Z,102023.88
2018-12-27T05:48:27.837Z,102025.36
2018-12-27T05:50:56.819Z,102024.81
2018-12-27T05:53:25.918Z,102021.46
2018-12-27T05:55:55.071Z,102024.85
2018-12-27T05:58:24.052Z,102026.55
2018-12-27T06:00:52.992Z,102021.67
2018-12-27T06:03:21.907Z,102025.10
2018-12-27T06:05:51.819Z,102023.35
2018-12-27T06:08:20.850Z,102022.85
2018-12-27T06:10:49.821Z,102030.78
2018-12-27T06:13:18.823Z,102035.12
2018-12-27T06:15:47.771Z,102027.58
2018-12-27T06:18:16.814Z,102036.11
2018-12-27T06:20:45.794Z,102037.78
2018-12-27T06:23:14.718Z,102030.73
2018-12-27T06:25:43.758Z,102028.48
2018-12-27T06:28:12.755Z,102027.99
2018-12-27T06:30:41.669Z,102032.22
2018-12-27T06:33:10.634Z,102027.20
2018-12-27T06:35:39.614Z,102030.19
2018-12-27T06:38:08.495Z,102022.52
2018-12-27T06:40:37.371Z,102016.78
2018-12-27T06:43:06.469Z,102021.84
2018-12-27T06:45:35.611Z,102024.13
2018-12-27T06:48:04.594Z,102022.82
2018-12-27T06:50:33.454Z,102026.04
2018-12-27T06:53:02.372Z,102025.09
2018-12-27T06:55:31.234Z,102028.31
2018-12-27T06:58:00.243Z,102027.50
2018-12-27T07:00:29.356Z,102025.82
2018-12-27T07:02:58.246Z,102033.37
2018-12-27T07:05:27.190Z,102040.34
2018-12-27T07:07:56.232Z,102044.08
2018-12-27T07:10:25.182Z,102042.27
2018-12-27T07:12:54.198Z,102040.20
2018-12-27T07:15:25.046Z,102048.25
2018-12-27T07:17:53.978Z,102056.87
2018-12-27T07:20:22.967Z,102051.95
2018-12-27T07:22:51.927Z,102053.75
2018-12-27T07:25:20.890Z,102056.14
2018-12-27T07:27:49.888Z,102054.58
2018-12-27T07:30:18.927Z,102054.59
2018-12-27T07:32:47.879Z,102051.95
2018-12-27T07:35:16.739Z,102053.99
2018-12-27T07:37:45.636Z,102052.28
2018-12-27T07:40:14.630Z,102046.39
2018-12-27T07:42:43.733Z,102044.59
2018-12-27T07:45:12.566Z,102044.34
2018-12-27T07:47:41.423Z,102042.39
2018-12-27T07:50:10.755Z,102044.31
2018-12-27T07:52:39.746Z,102045.29
2018-12-27T07:55:08.802Z,102043.47
2018-12-27T07:57:37.835Z,102047.33
2018-12-27T08:00:07.087Z,102043.00
2018-12-27T08:02:36.114Z,102050.91
2018-12-27T08:05:05.135Z,102043.22
2018-12-27T08:07:34.130Z,102042.88
2018-12-27T08:10:03.139Z,102046.68
2018-12-27T08:12:31.999Z,102039.02
2018-12-27T08:15:05.018Z,102036.39
2018-12-27T08:17:33.980Z,102037.70
2018-12-27T08:20:03.095Z,102033.75
2018-12-27T08:22:31.955Z,102029.53
2018-12-27T08:25:00.899Z,102029.91
2018-12-27T08:27:29.846Z,102024.19
2018-12-27T08:29:58.842Z,102024.17
2018-12-27T08:32:27.759Z,102025.17
2018-12-27T08:34:56.779Z,102025.41
2018-12-27T08:37:25.627Z,102028.39
2018-12-27T08:39:54.638Z,102026.37
2018-12-27T08:42:23.542Z,102023.85
2018-12-27T08:44:52.557Z,102022.30
2018-12-27T08:47:28.662Z,102015.95
2018-12-27T08:50:01.110Z,102018.60
2018-12-27T08:52:30.046Z,102014.04
2018-12-27T08:54:58.971Z,102012.48
2018-12-27T08:57:27.906Z,102004.57
2018-12-27T08:59:56.846Z,102009.72
2018-12-27T09:02:25.783Z,102005.76
2018-12-27T09:04:54.667Z,102005.66
2018-12-27T09:07:24.587Z,102000.95
2018-12-27T09:09:53.618Z,102003.59
2018-12-27T09:12:22.539Z,102002.64
2018-12-27T09:14:51.459Z,102005.90
2018-12-27T09:17:20.455Z,102006.86
2018-12-27T09:19:49.547Z,102001.69
2018-12-27T09:22:18.520Z,102006.87
2018-12-27T09:24:47.428Z,102003.39
2018-12-27T09:27:16.472Z,102000.95
2018-12-27T09:29:45.363Z,102006.62
2018-12-27T09:32:14.391Z,102009.36
2018-12-27T09:34:43.304Z,102002.52
2018-12-27T09:37:13.295Z,102008.84
2018-12-27T09:39:42.192Z,102004.02
2018-12-27T09:42:12.222Z,102001.84
2018-12-27T09:44:41.463Z,102007.58
2018-12-27T09:47:10.394Z,101997.70
2018-12-27T09:49:39.272Z,101997.18
2018-12-27T09:52:08.139Z,101997.30
2018-12-27T09:54:37.095Z,101991.23
2018-12-27T09:57:06.006Z,101988.80
2018-12-27T09:59:35.014Z,101985.52
2018-12-27T10:02:04.051Z,101983.78
2018-12-27T10:04:33.074Z,101981.55
2018-12-27T10:07:03.310Z,101976.17
2018-12-27T10:09:32.354Z,101970.95
2018-12-27T10:12:01.279Z,101967.47
2018-12-27T10:14:30.163Z,101966.58
2018-12-27T10:16:59.026Z,101972.98
2018-12-27T10:19:28.074Z,101967.59
2018-12-27T10:21:57.095Z,101970.05
2018-12-27T10:24:26.047Z,101961.00
2018-12-27T10:26:55.250Z,101960.52
2018-12-27T10:29:24.282Z,101952.45
2018-12-27T10:31:53.257Z,101955.52
2018-12-27T10:34:22.224Z,101959.97
2018-12-27T10:36:51.295Z,101959.63
2018-12-27T10:39:20.347Z,101951.53
2018-12-27T10:41:49.395Z,101951.28
2018-12-27T10:44:18.327Z,101943.06
2018-12-27T10:46:47.274Z,101947.77
2018-12-27T10:49:16.436Z,101937.51
2018-12-27T10:51:45.446Z,101942.02
2018-12-27T10:54:14.421Z,101936.73
2018-12-27T10:56:43.461Z,101930.83
2018-12-27T10:59:12.357Z,101925.47
2018-12-27T11:01:41.379Z,101930.05
2018-12-27T11:04:10.280Z,101921.92
2018-12-27T11:06:40.331Z,101920.75
2018-12-27T11:09:09.598Z,101914.85
2018-12-27T11:11:38.560Z,101911.22
2018-12-27T11:14:07.538Z,101901.99
2018-12-27T11:16:36.570Z,101903.03
2018-12-27T11:19:05.596Z,101901.05
2018-12-27T11:21:34.570Z,101895.92
2018-12-27T11:24:03.446Z,101896.52
2018-12-27T11:26:32.324Z,101893.95
2018-12-27T11:29:02.340Z,101890.02
2018-12-27T11:31:31.381Z,101886.70
2018-12-27T11:34:01.504Z,101878.46
2018-12-27T11:36:30.427Z,101883.00
2018-12-27T11:39:01.430Z,101883.52
2018-12-27T11:41:33.814Z,101875.99
2018-12-27T11:44:02.805Z,101864.81
2018-12-27T11:46:31.864Z,101862.20
2018-12-27T11:49:01.007Z,101869.61
2018-12-27T11:51:29.931Z,101862.37
2018-12-27T11:53:58.846Z,101864.97
2018-12-27T11:56:27.900Z,101871.94
2018-12-27T11:59:06.358Z,101876.40
2018-12-27T12:01:40.365Z,101873.72
2018-12-27T12:04:12.605Z,101870.59
2018-12-27T12:06:45.183Z,101871.38
2018-12-27T12:09:14.236Z,101867.38
2018-12-27T12:11:43.228Z,101871.66
2018-12-27T12:14:12.187Z,101870.84
2018-12-27T12:16:41.531Z,101867.23
2018-12-27T12:19:10.479Z,101867.97
2018-12-27T12:21:39.619Z,101862.26
2018-12-27T12:24:08.567Z,101872.25
2018-12-27T12:26:37.446Z,101864.02
2018-12-27T12:29:07.264Z,101870.41
2018-12-27T12:31:36.143Z,101863.42
2018-12-27T12:34:05.195Z,101861.52
2018-12-27T12:36:34.343Z,101855.23
2018-12-27T12:39:07.606Z,101847.77
2018-12-27T12:41:36.756Z,101853.28
2018-12-27T12:44:05.735Z,101851.96
2018-12-27T12:46:34.671Z,101845.12
2018-12-27T12:49:07.770Z,101844.50
2018-12-27T12:51:36.710Z,101847.30
2018-12-27T12:54:05.728Z,101848.13
2018-12-27T12:56:34.694Z,101853.95
2018-12-27T12:59:07.739Z,101857.59
2018-12-27T13:01:40.258Z,101857.90
2018-12-27T13:04:09.342Z,101863.41
2018-12-27T13:06:38.482Z,101863.41
2018-12-27T13:09:17.464Z,101859.29
2018-12-27T13:11:46.466Z,101863.59
2018-12-27T13:14:15.442Z,101861.09
2018-12-27T13:16:48.175Z,101863.94
2018-12-27T13:19:17.307Z,101868.25
2018-12-27T13:21:46.232Z,101859.42
2018-12-27T13:24:15.179Z,101862.25
2018-12-27T13:26:44.160Z,101861.91
2018-12-27T13:29:13.143Z,101867.87
2018-12-27T13:31:42.103Z,101855.55
2018-12-27T13:34:11.043Z,101858.20
2018-12-27T13:36:39.934Z,101866.97
2018-12-27T13:39:09.954Z,101866.06
2018-12-27T13:41:39.023Z,101869.69
2018-12-27T13:44:08.035Z,101862.67
2018-12-27T13:46:36.962Z,101863.98
2018-12-27T13:49:06.023Z,101866.59
2018-12-27T13:51:35.046Z,101865.92
2018-12-27T13:54:04.110Z,101868.77
2018-12-27T13:56:33.028Z,101876.45
2018-12-27T13:59:02.031Z,101873.97
2018-12-27T14:01:30.999Z,101873.31
2018-12-27T14:04:00.316Z,101875.48
2018-12-27T14:06:32.709Z,101874.93
2018-12-27T14:09:00.114Z,101882.38
2018-12-27T14:11:28.986Z,101883.64
2018-12-27T14:13:57.875Z,101880.77
2018-12-27T14:16:26.819Z,101886.73
2018-12-27T14:18:55.754Z,101891.20
2018-12-27T14:21:24.871Z,101888.16
2018-12-27T14:23:53.785Z,101894.88
2018-12-27T14:26:22.630Z,101896.62
2018-12-27T14:28:51.535Z,101888.55
2018-12-27T14:31:20.353Z,101881.33
2018-12-27T14:33:49.355Z,101873.62
2018-12-27T14:36:18.232Z,101875.38
2018-12-27T14:38:47.282Z,101871.09
2018-12-27T14:41:16.254Z,101877.25
2018-12-27T14:45:52.927Z,101871.60
2018-12-27T14:48:21.894Z,101876.90
2018-12-27T14:50:50.834Z,101871.44
2018-12-27T14:53:19.715Z,101875.95
2018-12-27T14:55:49.603Z,101877.80
2018-12-27T14:58:18.587Z,101886.28
2018-12-27T15:00:47.482Z,101880.48
2018-12-27T15:03:16.306Z,101883.03
2018-12-27T15:05:45.143Z,101874.95
2018-12-27T15:08:14.083Z,101873.48
2018-12-27T15:10:42.926Z,101869.37
2018-12-27T15:13:11.783Z,101871.48
2018-12-27T15:15:40.647Z,101870.44
2018-12-27T15:18:09.515Z,101856.61
2018-12-27T15:20:38.514Z,101858.20
2018-12-27T15:23:07.414Z,101854.86
2018-12-27T15:25:36.356Z,101852.16
2018-12-27T15:28:05.268Z,101858.79
2018-12-27T15:30:34.195Z,101853.07
2018-12-27T15:33:03.039Z,101852.14
2018-12-27T15:35:32.035Z,101863.53
2018-12-27T15:38:01.011Z,101861.78
2018-12-27T15:40:29.983Z,101863.38
2018-12-27T15:42:58.923Z,101864.34
2018-12-27T15:45:27.883Z,101861.21
2018-12-27T15:47:56.841Z,101868.69
2018-12-27T15:50:26.076Z,101870.06
2018-12-27T15:52:56.887Z,101864.77
2018-12-27T15:55:25.875Z,101858.35
2018-12-27T15:57:54.687Z,101876.42
2018-12-27T16:00:23.628Z,101871.75
2018-12-27T16:02:52.630Z,101876.16
2018-12-27T16:05:21.579Z,101867.78
2018-12-27T16:07:50.500Z,101862.53
2018-12-27T16:10:19.539Z,101859.67
2018-12-27T16:12:48.476Z,101854.01
2018-12-27T16:15:17.369Z,101856.45
2018-12-27T16:17:46.347Z,101850.81
2018-12-27T16:20:15.760Z,101840.91
2018-12-27T16:22:44.685Z,101848.08
2018-12-27T16:25:13.759Z,101859.19
2018-12-27T16:27:42.764Z,101851.45
2018-12-27T16:30:12.143Z,101839.95
2018-12-27T16:32:41.182Z,101837.98
2018-12-27T16:35:10.363Z,101834.02
2018-12-27T16:37:39.588Z,101831.52
2018-12-27T16:40:09.390Z,101840.58
2018-12-27T16:42:38.935Z,101838.69
2018-12-27T16:45:08.215Z,101845.73
2018-12-27T16:47:37.440Z,101850.34
2018-12-27T16:50:07.687Z,101846.63
2018-12-27T16:52:36.811Z,101842.59
2018-12-27T16:55:05.781Z,101847.33
2018-12-27T16:57:34.754Z,101859.05
2018-12-27T17:00:04.013Z,101869.59
2018-12-27T17:02:33.200Z,101863.17
2018-12-27T17:05:02.303Z,101868.31
2018-12-27T17:07:31.423Z,101868.25
2018-12-27T17:10:01.492Z,101865.03
2018-12-27T17:12:30.655Z,101871.80
2018-12-27T17:14:59.766Z,101862.80
2018-12-27T17:17:28.814Z,101850.77
2018-12-27T17:19:57.962Z,101843.82
2018-12-27T17:22:27.260Z,101838.52
2018-12-27T17:24:56.363Z,101847.37
2018-12-27T17:27:29.531Z,101850.60
2018-12-27T17:29:58.586Z,101859.45
2018-12-27T17:32:27.595Z,101859.09
2018-12-27T17:34:57.032Z,101863.48
2018-12-27T17:37:26.293Z,101858.08
2018-12-27T17:39:55.583Z,101850.34
2018-12-27T17:42:24.782Z,101851.64
2018-12-27T17:44:54.029Z,101844.78
2018-12-27T17:47:23.335Z,101842.16
2018-12-27T17:49:53.754Z,101852.38
2018-12-27T17:52:30.015Z,101845.14
2018-12-27T17:54:54.603Z,101843.41
2018-12-27T17:57:23.899Z,101852.88
2018-12-27T17:59:53.327Z,101851.53
2018-12-27T18:02:22.500Z,101874.34
2018-12-27T18:04:51.953Z,101868.53
2018-12-27T18:07:21.238Z,101862.32
2018-12-27T18:09:51.595Z,101863.81
2018-12-27T18:12:21.079Z,101864.69
2018-12-27T18:14:59.533Z,101882.84
2018-12-27T18:17:28.935Z,101870.83
2018-12-27T18:19:58.434Z,101866.78
2018-12-27T18:22:27.658Z,101868.23
2018-12-27T18:24:57.089Z,101862.12
2018-12-27T18:27:26.475Z,101865.01
2018-12-27T18:29:56.976Z,101851.70
2018-12-27T18:32:26.333Z,101861.80
2018-12-27T18:34:55.667Z,101864.91
2018-12-27T18:37:25.039Z,101862.88
2018-12-27T18:39:54.367Z,101856.89
2018-12-27T18:42:23.738Z,101848.36
2018-12-27T18:44:53.210Z,101851.00
2018-12-27T18:47:22.608Z,101851.00
2018-12-27T18:50:00.838Z,101845.48
2018-12-27T18:52:33.975Z,101848.83
2018-12-27T18:55:06.974Z,101855.39
2018-12-27T18:57:40.259Z,101854.91
2018-12-27T19:00:13.379Z,101855.03
2018-12-27T19:02:46.290Z,101856.70
2018-12-27T19:05:19.151Z,101855.75
2018-12-27T19:07:52.107Z,101855.12
2018-12-27T19:10:25.079Z,101859.64
2018-12-27T19:13:10.357Z,101856.53
2018-12-27T19:15:47.426Z,101857.85
2018-12-27T19:18:31.843Z,101854.26
2018-12-27T19:21:14.171Z,101852.80
2018-12-27T19:23:47.551Z,101855.20
2018-12-27T19:26:20.363Z,101857.09
2018-12-27T19:28:53.847Z,101851.56
2018-12-27T19:31:26.758Z,101855.13
2018-12-27T19:33:59.451Z,101852.62
2018-12-27T19:36:32.327Z,101852.84
2018-12-27T19:39:07.057Z,101859.31
2018-12-27T19:41:40.055Z,101854.88
2018-12-27T19:44:12.955Z,101851.14
2018-12-27T19:46:46.023Z,101855.70
2018-12-27T19:49:18.995Z,101855.08
2018-12-27T19:51:52.110Z,101857.81
2018-12-27T19:54:31.757Z,101851.58
2018-12-27T19:57:00.682Z,101845.92
2018-12-27T19:59:33.786Z,101844.83
2018-12-27T20:02:06.837Z,101847.70
2018-12-27T20:04:39.851Z,101838.34
2018-12-27T20:07:12.731Z,101834.45
2018-12-27T20:09:46.167Z,101838.88
2018-12-27T20:12:19.198Z,101831.53
2018-12-27T20:14:52.373Z,101844.84
2018-12-27T20:17:25.170Z,101847.31
2018-12-27T20:19:59.141Z,101845.59
2018-12-27T20:22:32.287Z,101851.02
2018-12-27T20:25:06.391Z,101850.44
2018-12-27T20:27:39.345Z,101846.24
2018-12-27T20:30:12.320Z,101852.30
2018-12-27T20:32:48.979Z,101862.73
2018-12-27T20:35:21.896Z,101851.05
2018-12-27T20:37:54.955Z,101864.87
2018-12-27T20:40:27.923Z,101867.84
2018-12-27T20:43:00.915Z,101866.42
2018-12-27T20:45:34.098Z,101864.95
2018-12-27T20:48:07.196Z,101872.44
2018-12-27T20:50:40.161Z,101878.37
2018-12-27T20:53:14.243Z,101874.42
2018-12-27T20:55:47.603Z,101883.84
2018-12-27T20:58:20.499Z,101888.09
2018-12-27T21:00:53.678Z,101882.60
2018-12-27T21:03:27.027Z,101884.89
2018-12-27T21:05:59.727Z,101886.73
2018-12-27T21:08:32.787Z,101880.98
2018-12-27T21:11:05.839Z,101888.45
2018-12-27T21:13:38.883Z,101895.30
2018-12-27T21:16:12.043Z,101902.75
2018-12-27T21:18:45.084Z,101896.87
2018-12-27T21:21:19.120Z,101896.30
2018-12-27T21:23:51.947Z,101892.20
2018-12-27T21:26:28.979Z,101893.90
2018-12-27T21:29:01.659Z,101896.55
2018-12-27T21:31:34.717Z,101895.23
2018-12-27T21:34:08.275Z,101899.09
2018-12-27T21:36:40.861Z,101890.45
2018-12-27T21:39:13.885Z,101887.20
2018-12-27T21:41:47.164Z,101896.58
2018-12-27T21:44:20.862Z,101897.05
2018-12-27T21:46:54.335Z,101892.72
2018-12-27T21:49:28.319Z,101889.13
2018-12-27T21:52:01.382Z,101892.72
2018-12-27T21:54:34.174Z,101891.91
2018-12-27T21:57:07.418Z,101891.41
2018-12-27T21:59:41.107Z,101889.03
2018-12-27T22:02:14.326Z,101878.34
2018-12-27T22:04:51.761Z,101875.94
2018-12-27T22:07:25.259Z,101869.38
2018-12-27T22:09:58.278Z,101871.63
2018-12-27T22:12:31.055Z,101871.77
2018-12-27T22:15:03.826Z,101879.09
2018-12-27T22:17:36.743Z,101880.77
2018-12-27T22:20:09.647Z,101878.11
2018-12-27T22:22:42.787Z,101868.85
2018-12-27T22:25:15.959Z,101862.27
2018-12-27T22:27:49.174Z,101858.42
2018-12-27T22:30:21.936Z,101858.65
2018-12-27T22:32:58.992Z,101849.88
2018-12-27T22:35:31.702Z,101846.91
2018-12-27T22:38:05.059Z,101852.52
2018-12-27T22:40:37.583Z,101858.76
2018-12-27T22:43:10.687Z,101860.08
2018-12-27T22:45:43.818Z,101868.20
2018-12-27T22:48:16.926Z,101875.00
2018-12-27T22:50:49.922Z,101869.61
2018-12-27T22:53:22.979Z,101871.63
2018-12-27T22:55:57.468Z,101873.89
2018-12-27T22:58:31.087Z,101872.39
2018-12-27T23:01:03.847Z,101876.66
2018-12-27T23:03:36.875Z,101877.72
2018-12-27T23:06:09.738Z,101874.84
2018-12-27T23:08:43.427Z,101884.02
2018-12-27T23:11:17.199Z,101889.12
2018-12-27T23:13:49.881Z,101881.91
2018-12-27T23:16:22.238Z,101880.45
2018-12-27T23:18:55.094Z,101877.31
2018-12-27T23:21:31.193Z,101870.58
2018-12-27T23:24:04.271Z,101868.41
2018-12-27T23:26:36.939Z,101862.63
2018-12-27T23:29:10.002Z,101855.20
2018-12-27T23:31:42.243Z,101861.91
2018-12-27T23:34:15.172Z,101852.96
2018-12-27T23:36:48.215Z,101844.13
2018-12-27T23:39:20.478Z,101835.86
2018-12-27T23:41:53.431Z,101835.52
2018-12-27T23:44:26.355Z,101840.39
2018-12-27T23:46:59.275Z,101843.71
2018-12-27T23:49:32.270Z,101839.76
2018-12-27T23:52:03.168Z,101839.25
2018-12-27T23:54:39.295Z,101839.45
2018-12-27T23:57:11.579Z,101838.14
2018-12-27T23:59:44.710Z,101844.98
